Time;durP1;ratioP1;P1;durP2;ratioP2;P2;SDS_P1;SDS_P2;PMS_P1;PMS_P2;Temp;Humidity;BMP_temperature;BMP_pressure;BME280_temperature;BME280_humidity;BME280_pressure;Samples;Min_cycle;Max_cycle;Signal;HPM_P1;HPM_P2
2023/09/26 00:00:21;;;;;;;0.85;0.80;;;;;;;18.18;84.45;94930.81;5070266;28;20556;-74
2023/09/26 00:02:47;;;;;;;0.47;0.47;;;;;;;18.18;84.57;94930.81;5070214;28;20268;-75
2023/09/26 00:05:14;;;;;;;1.88;0.98;;;;;;;18.19;84.31;94918.69;5070224;28;20227;-74
2023/09/26 00:07:41;;;;;;;0.20;0.20;;;;;;;18.18;84.43;94927.31;5070072;28;20823;-75
2023/09/26 00:10:10;;;;;;;0.45;0.45;;;;;;;18.17;84.77;94933.97;5069843;28;20296;-74
2023/09/26 00:12:38;;;;;;;0.20;0.20;;;;;;;18.13;84.98;94942.13;5069506;28;20203;-76
2023/09/26 00:15:07;;;;;;;0.70;0.60;;;;;;;18.07;85.61;94933.41;5070248;28;20215;-76
2023/09/26 00:17:34;;;;;;;0.28;0.28;;;;;;;18.04;85.83;94933.38;5069713;28;20230;-75
2023/09/26 00:20:04;;;;;;;0.40;0.40;;;;;;;18.03;85.95;94920.81;5069705;28;20252;-76
2023/09/26 00:22:31;;;;;;;0.38;0.38;;;;;;;17.98;86.38;94924.66;5069424;28;20209;-74
2023/09/26 00:24:58;;;;;;;0.30;0.30;;;;;;;17.92;86.80;94928.06;5070073;28;20658;-75
2023/09/26 00:27:24;;;;;;;0.45;0.45;;;;;;;17.92;86.87;94928.84;5069971;28;20203;-74
2023/09/26 00:29:53;;;;;;;1.73;0.70;;;;;;;17.84;87.30;94918.94;5069809;28;20206;-74
2023/09/26 00:32:19;;;;;;;0.20;0.20;;;;;;;17.82;87.48;94926.72;5069913;28;20583;-73
2023/09/26 00:34:47;;;;;;;0.73;0.73;;;;;;;17.83;87.29;94938.50;5069772;28;20249;-74
2023/09/26 00:37:14;;;;;;;0.50;0.47;;;;;;;17.81;87.31;94930.63;5069882;28;20226;-74
2023/09/26 00:39:40;;;;;;;0.63;0.63;;;;;;;17.82;87.15;94936.91;5069116;28;20256;-74
2023/09/26 00:42:07;;;;;;;0.65;0.47;;;;;;;17.84;86.87;94924.41;5080727;28;20635;-73
2023/09/26 00:44:34;;;;;;;0.88;0.22;;;;;;;17.75;87.34;94921.94;5069589;28;20676;-74
2023/09/26 00:47:02;;;;;;;0.40;0.40;;;;;;;17.68;87.71;94913.59;5069645;28;20686;-75
2023/09/26 00:49:31;;;;;;;0.20;0.20;;;;;;;17.64;88.18;94915.47;5069643;28;20252;-74
2023/09/26 00:52:00;;;;;;;0.28;0.28;;;;;;;17.61;88.39;94916.19;5069854;28;20275;-74
2023/09/26 00:54:28;;;;;;;0.32;0.32;;;;;;;17.55;88.78;94923.09;5069088;28;20210;-73
2023/09/26 00:56:58;;;;;;;0.30;0.30;;;;;;;17.48;89.26;94920.25;5069566;28;20203;-74
2023/09/26 00:59:26;;;;;;;0.30;0.30;;;;;;;17.40;89.88;94921.25;5071586;28;20203;-74
2023/09/26 01:01:52;;;;;;;0.20;0.20;;;;;;;17.40;90.00;94927.53;5073539;28;20260;-73
2023/09/26 01:04:22;;;;;;;0.40;0.40;;;;;;;17.37;90.08;94921.97;5073776;28;20718;-74
2023/09/26 01:06:49;;;;;;;0.75;0.20;;;;;;;17.35;90.33;94927.06;5073593;28;20234;-74
2023/09/26 01:09:19;;;;;;;1.55;0.40;;;;;;;17.27;91.17;94922.59;5073607;28;20613;-75
2023/09/26 01:11:46;;;;;;;0.40;0.40;;;;;;;17.24;91.29;94913.16;5073086;28;20672;-75
2023/09/26 01:14:13;;;;;;;2.53;1.55;;;;;;;17.21;91.71;94919.38;5057023;28;20256;-74
2023/09/26 01:16:41;;;;;;;0.40;0.40;;;;;;;17.23;91.21;94917.03;5073162;28;20214;-75
2023/09/26 01:19:08;;;;;;;0.40;0.40;;;;;;;17.16;91.66;94914.19;5073531;28;20203;-74
2023/09/26 01:21:36;;;;;;;0.32;0.30;;;;;;;17.16;92.24;94916.13;5073103;28;20658;-74
2023/09/26 01:24:07;;;;;;;0.63;0.63;;;;;;;17.12;92.67;94921.53;5072995;28;20222;-74
2023/09/26 01:26:37;;;;;;;0.63;0.57;;;;;;;17.08;92.83;94912.47;5073142;28;20256;-75
2023/09/26 01:29:06;;;;;;;0.17;0.17;;;;;;;17.05;92.79;94913.19;5073446;28;20231;-74
2023/09/26 01:31:34;;;;;;;0.40;0.40;;;;;;;17.04;93.14;94915.13;5073000;28;20777;-73
2023/09/26 01:34:02;;;;;;;0.57;0.57;;;;;;;17.02;93.01;94911.97;5072955;28;20211;-74
2023/09/26 01:36:29;;;;;;;0.40;0.40;;;;;;;17.11;92.93;94908.97;5072897;28;20203;-73
2023/09/26 01:38:55;;;;;;;0.20;0.20;;;;;;;17.11;92.59;94913.66;5072631;28;20215;-74
2023/09/26 01:41:24;;;;;;;1.13;0.75;;;;;;;17.11;92.46;94913.66;5079704;28;20210;-73
2023/09/26 01:43:51;;;;;;;0.40;0.40;;;;;;;17.13;91.74;94903.16;5075378;28;20942;-73
2023/09/26 01:46:19;;;;;;;0.80;0.57;;;;;;;17.19;91.03;94909.94;5072509;28;20199;-73
2023/09/26 01:48:46;;;;;;;0.40;0.40;;;;;;;17.23;89.71;94906.09;5072371;28;20206;-72
2023/09/26 01:51:13;;;;;;;0.15;0.15;;;;;;;17.30;89.49;94913.66;5072795;28;20203;-73
2023/09/26 01:53:40;;;;;;;0.55;0.55;;;;;;;17.24;90.17;94912.34;5072239;28;20207;-73
2023/09/26 01:56:06;;;;;;;0.43;0.43;;;;;;;17.25;89.46;94908.47;5072061;28;20256;-73
2023/09/26 01:58:35;;;;;;;0.30;0.30;;;;;;;17.30;88.50;94916.38;5072504;28;20199;-73
2023/09/26 02:01:01;;;;;;;0.10;0.10;;;;;;;17.25;88.78;94919.41;5069117;28;20207;-75
2023/09/26 02:03:28;;;;;;;0.40;0.40;;;;;;;17.19;88.85;94923.63;5063020;28;20196;-74
2023/09/26 02:05:58;;;;;;;0.35;0.35;;;;;;;17.15;89.20;94930.97;5069936;28;20238;-75
2023/09/26 02:08:25;;;;;;;0.68;0.60;;;;;;;17.04;89.69;94920.59;5072005;28;20308;-75
2023/09/26 02:10:51;;;;;;;0.32;0.32;;;;;;;17.04;91.33;94926.06;5068966;28;20238;-75
2023/09/26 02:13:18;;;;;;;0.10;0.10;;;;;;;16.91;93.34;94926.59;5071419;28;20207;-74
2023/09/26 02:15:46;;;;;;;0.47;0.47;;;;;;;16.82;95.29;94932.25;5072013;28;20195;-74
2023/09/26 02:18:13;;;;;;;0.30;0.30;;;;;;;16.77;96.54;94938.03;5072382;28;20210;-75
2023/09/26 02:20:40;;;;;;;1.65;0.93;;;;;;;16.63;96.78;94929.53;5068867;28;20239;-75
2023/09/26 02:23:07;;;;;;;0.20;0.20;;;;;;;16.64;96.41;94925.63;5064185;28;20346;-75
2023/09/26 02:25:34;;;;;;;0.35;0.35;;;;;;;16.62;96.23;94928.72;5063289;28;20215;-75
2023/09/26 02:28:01;;;;;;;0.30;0.30;;;;;;;16.58;96.09;94921.56;5066304;28;20242;-75
2023/09/26 02:30:29;;;;;;;0.25;0.25;;;;;;;16.60;96.18;94930.19;5066285;28;20210;-75
2023/09/26 02:32:58;;;;;;;0.65;0.65;;;;;;;16.59;95.89;94920.41;5065747;28;20210;-76
2023/09/26 02:35:25;;;;;;;0.32;0.32;;;;;;;16.58;95.38;94929.75;5068877;28;20203;-74
2023/09/26 02:37:52;;;;;;;0.28;0.20;;;;;;;16.63;95.74;94918.56;5067117;28;20594;-74
2023/09/26 02:40:19;;;;;;;2.53;0.70;;;;;;;16.52;96.07;94923.00;5083851;28;20217;-74
2023/09/26 02:42:46;;;;;;;0.57;0.47;;;;;;;16.50;95.46;94922.56;5087982;28;20199;-74
2023/09/26 02:45:13;;;;;;;0.10;0.10;;;;;;;16.48;95.24;94913.91;5071873;28;20222;-74
2023/09/26 02:47:39;;;;;;;1.00;0.30;;;;;;;16.54;94.29;94918.75;5072145;28;20241;-75
2023/09/26 02:50:09;;;;;;;0.17;0.17;;;;;;;16.67;88.21;94916.72;5072058;28;20690;-74
2023/09/26 02:52:37;;;;;;;0.20;0.20;;;;;;;16.75;87.29;94914.91;5084275;28;20586;-74
2023/09/26 02:55:04;;;;;;;0.50;0.50;;;;;;;16.87;82.99;94914.75;5071856;28;20211;-74
2023/09/26 02:57:34;;;;;;;0.10;0.10;;;;;;;16.98;81.25;94905.59;5071846;28;20211;-74
2023/09/26 03:00:03;;;;;;;0.30;0.30;;;;;;;17.09;81.04;94910.50;5071819;28;20253;-74
2023/09/26 03:02:29;;;;;;;0.32;0.25;;;;;;;17.15;78.44;94925.47;5071672;28;20203;-74
2023/09/26 03:04:56;;;;;;;0.20;0.20;;;;;;;17.33;75.65;94921.16;5071705;28;20223;-74
2023/09/26 03:07:24;;;;;;;0.75;0.73;;;;;;;17.38;74.61;94920.81;5071519;28;20203;-74
2023/09/26 03:09:51;;;;;;;0.30;0.30;;;;;;;17.39;74.09;94927.91;5071565;28;20234;-74
2023/09/26 03:12:18;;;;;;;1.45;0.63;;;;;;;17.41;73.48;94923.66;5071563;28;20293;-74
2023/09/26 03:14:45;;;;;;;0.30;0.30;;;;;;;17.60;68.94;94930.25;5071462;28;20190;-75
2023/09/26 03:17:11;;;;;;;0.20;0.20;;;;;;;17.67;69.27;94920.22;5071948;28;20272;-74
2023/09/26 03:19:38;;;;;;;0.20;0.20;;;;;;;17.72;69.02;94925.41;5071110;28;20195;-74
2023/09/26 03:22:06;;;;;;;0.43;0.20;;;;;;;17.63;69.60;94930.31;5070298;28;20249;-75
2023/09/26 03:24:34;;;;;;;0.30;0.30;;;;;;;17.61;69.18;94934.56;5064196;28;20570;-73
2023/09/26 03:27:01;;;;;;;0.30;0.30;;;;;;;17.56;69.22;94941.13;5071938;28;20225;-73
2023/09/26 03:29:28;;;;;;;0.13;0.13;;;;;;;17.55;68.34;94923.09;5071879;28;20248;-74
2023/09/26 03:31:54;;;;;;;0.10;0.10;;;;;;;17.66;67.53;94929.59;5071537;28;20902;-73
2023/09/26 03:34:21;;;;;;;0.65;0.50;;;;;;;17.60;67.23;94925.56;5071371;28;20229;-74
2023/09/26 03:36:48;;;;;;;0.65;0.65;;;;;;;17.66;66.23;94934.28;5070947;28;20543;-74
2023/09/26 03:39:15;;;;;;;0.10;0.10;;;;;;;17.63;66.67;94933.06;5071140;28;20664;-73
2023/09/26 03:41:43;;;;;;;0.32;0.32;;;;;;;17.59;66.98;94926.72;5070876;28;20745;-74
2023/09/26 03:44:11;;;;;;;0.35;0.35;;;;;;;17.50;67.02;94933.56;5071373;28;20645;-74
2023/09/26 03:46:38;;;;;;;0.20;0.20;;;;;;;17.47;67.04;94932.38;5053564;28;20231;-73
2023/09/26 03:49:05;;;;;;;0.52;0.40;;;;;;;17.43;67.26;94931.50;5061180;28;20203;-73
2023/09/26 03:51:32;;;;;;;0.20;0.20;;;;;;;17.46;67.53;94940.94;5070545;28;20249;-74
2023/09/26 03:53:59;;;;;;;0.57;0.57;;;;;;;17.52;66.71;94934.00;5075258;28;20226;-73
2023/09/26 03:56:25;;;;;;;0.20;0.20;;;;;;;17.47;66.64;94932.38;5070457;28;20203;-72
2023/09/26 03:58:54;;;;;;;0.40;0.40;;;;;;;17.46;67.10;94947.22;5071342;28;20207;-71
2023/09/26 04:01:21;;;;;;;0.65;0.65;;;;;;;17.39;67.16;94944.31;5070715;28;20211;-72
2023/09/26 04:03:49;;;;;;;0.20;0.20;;;;;;;17.42;67.34;94949.88;5069337;28;20256;-72
2023/09/26 04:06:15;;;;;;;0.90;0.85;;;;;;;17.36;67.23;94951.31;5070272;28;20233;-71
2023/09/26 04:08:42;;;;;;;0.10;0.10;;;;;;;17.38;67.07;94940.00;5070460;28;20207;-72
2023/09/26 04:11:13;;;;;;;0.30;0.30;;;;;;;17.44;66.75;94941.31;5070582;28;20251;-74
2023/09/26 04:13:40;;;;;;;7.43;0.70;;;;;;;17.44;66.65;94949.53;5070846;28;20282;-72
2023/09/26 04:16:08;;;;;;;0.10;0.10;;;;;;;17.43;66.75;94956.16;5070847;28;20293;-73
2023/09/26 04:18:35;;;;;;;0.10;0.10;;;;;;;17.43;66.89;94953.41;5070548;28;20625;-72
2023/09/26 04:21:04;;;;;;;0.32;0.15;;;;;;;17.47;66.80;94948.00;5070502;28;20203;-73
2023/09/26 04:23:31;;;;;;;1.30;1.13;;;;;;;17.40;67.34;94951.38;5070279;28;20205;-71
2023/09/26 04:25:58;;;;;;;0.63;0.63;;;;;;;17.27;68.11;94956.25;5069999;28;20288;-71
2023/09/26 04:28:25;;;;;;;0.20;0.20;;;;;;;17.27;67.98;94952.72;5070122;28;20583;-72
2023/09/26 04:30:52;;;;;;;0.30;0.30;;;;;;;17.27;68.05;94948.03;5070274;28;20209;-72
2023/09/26 04:33:20;;;;;;;2.30;1.15;;;;;;;17.30;67.94;94944.56;5069632;28;20686;-73
2023/09/26 04:35:47;;;;;;;0.20;0.20;;;;;;;17.30;68.21;94949.25;5070517;28;20203;-71
2023/09/26 04:38:14;;;;;;;0.30;0.30;;;;;;;17.27;68.48;94949.97;5070830;28;20206;-72
2023/09/26 04:40:41;;;;;;;0.45;0.45;;;;;;;17.30;68.16;94957.47;5068703;28;20207;-73
2023/09/26 04:43:08;;;;;;;0.30;0.30;;;;;;;17.21;69.00;94963.19;5070777;28;20210;-72
2023/09/26 04:45:35;;;;;;;0.40;0.40;;;;;;;17.21;69.15;94945.94;5069828;28;20238;-72
2023/09/26 04:48:02;;;;;;;0.45;0.45;;;;;;;17.32;69.08;94953.22;5070272;28;20259;-72
2023/09/26 04:50:31;;;;;;;0.30;0.30;;;;;;;17.34;69.00;94950.13;5069901;28;20209;-72
2023/09/26 04:52:59;;;;;;;0.30;0.30;;;;;;;17.33;68.80;94964.97;5070697;28;20210;-73
2023/09/26 04:55:26;;;;;;;0.52;0.52;;;;;;;17.31;69.29;94978.22;5069961;28;20256;-71
2023/09/26 04:57:54;;;;;;;0.43;0.40;;;;;;;17.39;69.07;94969.78;5070415;28;20207;-72
2023/09/26 05:00:22;;;;;;;0.57;0.57;;;;;;;17.48;68.77;94966.03;5070729;28;20590;-72
2023/09/26 05:02:52;;;;;;;0.22;0.22;;;;;;;18.01;67.36;94961.50;5070564;28;20545;-72
2023/09/26 05:05:20;;;;;;;0.25;0.25;;;;;;;18.48;65.79;94966.56;5069974;28;20227;-74
2023/09/26 05:07:49;;;;;;;1.38;1.23;;;;;;;18.91;64.17;94957.00;5070234;28;20235;-74
2023/09/26 05:10:17;;;;;;;1.15;1.05;;;;;;;19.65;62.18;94959.06;5069711;28;20226;-72
2023/09/26 05:12:44;;;;;;;0.50;0.50;;;;;;;19.47;61.97;94970.63;5069811;28;20585;-73
2023/09/26 05:15:14;;;;;;;0.38;0.38;;;;;;;19.06;63.05;94969.75;5070007;28;20207;-74
2023/09/26 05:17:42;;;;;;;2.92;0.85;;;;;;;18.75;64.18;94975.59;5069889;28;20560;-73
2023/09/26 05:20:11;;;;;;;0.40;0.40;;;;;;;19.31;62.84;94977.50;5070420;28;20649;-74
2023/09/26 05:22:40;;;;;;;0.63;0.63;;;;;;;19.26;62.68;94970.41;5069689;28;20203;-73
2023/09/26 05:25:10;;;;;;;0.20;0.20;;;;;;;19.28;62.84;94983.72;5069684;28;20951;-72
2023/09/26 05:27:38;;;;;;;1.80;0.73;;;;;;;19.99;60.92;94979.03;5069791;28;20207;-75
2023/09/26 05:30:06;;;;;;;0.22;0.22;;;;;;;20.79;58.12;94977.31;5069835;28;20208;-76
2023/09/26 05:32:33;;;;;;;0.40;0.40;;;;;;;21.62;55.89;94969.84;5069767;28;20659;-72
2023/09/26 05:35:01;;;;;;;0.57;0.55;;;;;;;21.88;54.60;94963.19;5069586;28;20554;-76
2023/09/26 05:37:28;;;;;;;0.73;0.65;;;;;;;22.29;53.29;94963.66;5069819;28;20199;-74
2023/09/26 05:39:55;;;;;;;1.45;0.82;;;;;;;22.95;51.80;94961.28;5070078;28;20737;-75
2023/09/26 05:42:23;;;;;;;0.63;0.40;;;;;;;23.13;51.01;94955.66;5069494;28;20261;-77
2023/09/26 05:44:50;;;;;;;1.17;1.02;;;;;;;22.93;51.44;94965.63;5071312;28;20994;-75
2023/09/26 05:47:17;;;;;;;0.88;0.85;;;;;;;22.85;51.79;94967.59;5073905;28;20223;-75
2023/09/26 05:49:44;;;;;;;1.20;0.73;;;;;;;23.24;51.10;94972.22;5073200;28;20207;-74
2023/09/26 05:52:11;;;;;;;0.47;0.47;;;;;;;23.99;49.10;94962.41;5073274;28;20211;-74
2023/09/26 05:54:38;;;;;;;8.45;0.73;;;;;;;24.88;47.92;94961.69;5072468;28;20209;-74
2023/09/26 05:57:05;;;;;;;1.25;1.00;;;;;;;25.01;46.60;94959.97;5073525;28;20276;-74
2023/09/26 05:59:33;;;;;;;1.05;0.95;;;;;;;25.58;45.84;94961.31;5073354;28;20206;-74
2023/09/26 06:02:00;;;;;;;2.13;1.20;;;;;;;25.55;45.75;94970.50;5072809;28;20210;-75
2023/09/26 06:04:27;;;;;;;1.10;1.00;;;;;;;24.76;46.73;94970.50;5073200;28;20211;-74
2023/09/26 06:06:54;;;;;;;1.33;1.00;;;;;;;24.12;47.66;94970.22;5073163;28;20333;-74
2023/09/26 06:09:21;;;;;;;1.52;1.25;;;;;;;24.73;47.00;94977.69;5073343;28;20285;-74
2023/09/26 06:11:47;;;;;;;0.32;0.32;;;;;;;23.91;48.21;94976.69;5072834;28;20235;-74
2023/09/26 06:14:14;;;;;;;0.82;0.45;;;;;;;24.12;48.34;94981.28;5073492;28;20214;-74
2023/09/26 06:16:42;;;;;;;0.50;0.50;;;;;;;23.95;48.66;94978.22;5071460;28;20264;-74
2023/09/26 06:19:09;;;;;;;2.58;1.38;;;;;;;23.97;48.70;94986.91;5073281;28;20676;-74
2023/09/26 06:21:36;;;;;;;2.35;1.58;;;;;;;23.51;49.56;94995.44;5072675;28;20198;-74
2023/09/26 06:24:05;;;;;;;1.70;1.52;;;;;;;22.99;50.34;94977.81;5073228;28;20203;-76
2023/09/26 06:26:32;;;;;;;6.00;2.85;;;;;;;23.69;49.82;94973.25;5072260;28;20237;-74
2023/09/26 06:28:59;;;;;;;1.30;1.15;;;;;;;23.78;49.47;94973.56;5072698;28;20242;-73
2023/09/26 06:31:26;;;;;;;1.58;1.02;;;;;;;23.86;49.39;94975.13;5072567;28;20329;-73
2023/09/26 06:33:56;;;;;;;4.90;1.25;;;;;;;24.45;48.96;94977.94;5072875;28;20203;-73
2023/09/26 06:36:22;;;;;;;0.93;0.80;;;;;;;24.20;48.35;94977.28;5072571;28;20203;-76
2023/09/26 06:38:49;;;;;;;4.40;1.58;;;;;;;23.93;49.16;94975.06;5072432;28;20203;-73
2023/09/26 06:41:16;;;;;;;3.97;1.13;;;;;;;23.77;49.17;94972.03;5073051;28;20214;-74
2023/09/26 06:43:43;;;;;;;1.10;1.00;;;;;;;23.47;50.16;94980.03;5072482;28;20207;-72
2023/09/26 06:46:10;;;;;;;0.50;0.50;;;;;;;22.91;51.61;94979.81;5071812;28;20234;-75
2023/09/26 06:48:38;;;;;;;1.40;1.20;;;;;;;22.90;52.22;94980.22;5072266;28;20214;-74
2023/09/26 06:51:08;;;;;;;3.60;1.00;;;;;;;22.87;53.00;94981.00;5071927;28;20673;-74
2023/09/26 06:53:35;;;;;;;1.45;1.20;;;;;;;22.74;53.18;94977.06;5071648;28;20673;-74
2023/09/26 06:56:02;;;;;;;1.33;1.05;;;;;;;22.69;52.74;94979.03;5071256;28;20210;-75
2023/09/26 06:58:29;;;;;;;0.25;0.25;;;;;;;22.07;54.70;94977.84;5072047;28;20203;-75
2023/09/26 07:00:56;;;;;;;1.20;1.10;;;;;;;22.36;54.48;94978.66;5072205;28;20207;-73
2023/09/26 07:03:22;;;;;;;1.73;1.17;;;;;;;21.93;55.81;94973.88;5071797;28;20207;-72
2023/09/26 07:05:49;;;;;;;1.55;1.10;;;;;;;22.04;55.37;94978.63;5071878;28;20234;-75
2023/09/26 07:08:17;;;;;;;0.45;0.45;;;;;;;22.18;55.81;94967.59;5072154;28;20245;-74
2023/09/26 07:10:45;;;;;;;0.65;0.65;;;;;;;22.50;55.36;94973.13;5071109;28;20328;-75
2023/09/26 07:13:13;;;;;;;1.38;1.15;;;;;;;22.39;55.79;94989.72;5071570;28;20206;-75
2023/09/26 07:15:41;;;;;;;2.33;1.05;;;;;;;22.37;56.03;94983.78;5071680;28;20274;-74
2023/09/26 07:18:09;;;;;;;3.40;1.90;;;;;;;22.00;57.28;94983.38;5072086;28;20207;-75
2023/09/26 07:20:38;;;;;;;1.33;0.93;;;;;;;22.41;56.35;94979.06;5071593;28;20667;-72
2023/09/26 07:23:05;;;;;;;0.30;0.30;;;;;;;22.89;55.24;94984.16;5071416;28;20286;-72
2023/09/26 07:25:33;;;;;;;0.20;0.20;;;;;;;22.59;54.55;94971.53;5071099;28;20211;-73
2023/09/26 07:28:00;;;;;;;0.30;0.20;;;;;;;22.17;56.62;94982.59;5071117;28;20226;-74
2023/09/26 07:30:26;;;;;;;3.72;0.30;;;;;;;21.94;57.93;94982.94;5071030;28;20207;-72
2023/09/26 07:32:53;;;;;;;2.03;1.17;;;;;;;21.16;59.63;94975.19;5071946;28;20276;-76
2023/09/26 07:35:20;;;;;;;0.63;0.63;;;;;;;20.82;60.43;94982.84;5071680;28;20559;-74
2023/09/26 07:37:47;;;;;;;0.85;0.80;;;;;;;20.91;61.19;94990.75;5071191;28;20198;-73
2023/09/26 07:40:14;;;;;;;0.43;0.43;;;;;;;20.82;60.41;94998.59;5071494;28;20268;-74
2023/09/26 07:42:42;;;;;;;2.10;0.75;;;;;;;20.85;60.21;94986.81;5071135;28;20207;-75
2023/09/26 07:45:10;;;;;;;0.90;0.68;;;;;;;21.11;59.11;94972.00;5071287;28;20245;-75
2023/09/26 07:47:37;;;;;;;0.20;0.20;;;;;;;21.31;58.35;94978.03;5070903;28;20233;-74
2023/09/26 07:50:05;;;;;;;2.92;0.82;;;;;;;21.11;58.18;94972.78;5070946;28;20207;-74
2023/09/26 07:52:32;;;;;;;0.52;0.52;;;;;;;21.41;58.14;94974.50;5071046;28;20709;-73
2023/09/26 07:54:58;;;;;;;0.38;0.38;;;;;;;21.75;56.95;94962.00;5071057;28;20203;-74
2023/09/26 07:57:25;;;;;;;7.13;1.10;;;;;;;21.72;56.57;94962.00;5071159;28;20229;-74
2023/09/26 07:59:54;;;;;;;1.67;1.50;;;;;;;21.69;56.15;94963.56;5071328;28;20621;-74
2023/09/26 08:02:20;;;;;;;0.28;0.28;;;;;;;21.34;55.23;94963.44;5070965;28;20211;-72
2023/09/26 08:04:47;;;;;;;0.82;0.45;;;;;;;21.47;55.24;94964.66;5070867;28;20202;-73
2023/09/26 08:07:14;;;;;;;0.30;0.30;;;;;;;21.65;54.98;94960.00;5070765;28;20268;-73
2023/09/26 08:09:41;;;;;;;2.92;1.42;;;;;;;21.93;54.68;94968.34;5070573;28;20203;-73
2023/09/26 08:12:08;;;;;;;0.50;0.50;;;;;;;21.81;54.36;94968.72;5070816;28;20269;-73
2023/09/26 08:14:35;;;;;;;0.47;0.47;;;;;;;22.16;53.98;94958.94;5071041;28;20284;-73
2023/09/26 08:17:03;;;;;;;2.55;1.65;;;;;;;21.87;53.54;94955.31;5070910;28;20598;-74
2023/09/26 08:19:30;;;;;;;0.35;0.35;;;;;;;21.71;54.46;94944.66;5070801;28;20578;-73
2023/09/26 08:21:57;;;;;;;0.25;0.25;;;;;;;21.62;54.16;94952.50;5071095;28;20203;-74
2023/09/26 08:24:24;;;;;;;0.65;0.65;;;;;;;21.90;54.37;94946.25;5070916;28;20237;-73
2023/09/26 08:26:51;;;;;;;1.80;0.50;;;;;;;21.53;54.18;94946.59;5070554;28;20591;-73
2023/09/26 08:29:18;;;;;;;2.88;1.33;;;;;;;21.83;54.18;94952.56;5070549;28;20288;-74
2023/09/26 08:31:44;;;;;;;1.40;0.90;;;;;;;21.94;53.25;94936.81;5070530;28;20233;-73
2023/09/26 08:34:13;;;;;;;1.38;0.93;;;;;;;22.26;52.77;94931.34;5070850;28;20210;-74
2023/09/26 08:36:40;;;;;;;0.57;0.50;;;;;;;22.19;51.38;94922.28;5070380;28;20210;-73
2023/09/26 08:39:08;;;;;;;0.52;0.52;;;;;;;22.23;51.13;94936.88;5070571;28;20209;-73
2023/09/26 08:41:37;;;;;;;1.70;1.35;;;;;;;22.15;52.52;94943.53;5070213;28;20211;-73
2023/09/26 08:44:04;;;;;;;0.35;0.30;;;;;;;22.30;52.12;94945.13;5070426;28;20203;-72
2023/09/26 08:46:32;;;;;;;0.90;0.60;;;;;;;22.58;51.39;94947.88;5070062;28;20280;-77
2023/09/26 08:49:00;;;;;;;2.28;1.10;;;;;;;22.52;51.22;94943.94;5070520;28;20199;-76
2023/09/26 08:51:29;;;;;;;0.90;0.85;;;;;;;23.18;50.68;94944.22;5070121;28;20261;-77
2023/09/26 08:54:02;;;;;;;0.85;0.77;;;;;;;22.63;49.44;94933.69;5070381;28;20211;-78
2023/09/26 08:56:29;;;;;;;1.98;1.25;;;;;;;23.21;49.58;94937.88;5069819;28;20229;-75
2023/09/26 08:58:58;;;;;;;1.25;1.05;;;;;;;23.42;49.59;94933.44;5070563;28;20211;-73
2023/09/26 09:01:25;;;;;;;1.80;1.00;;;;;;;23.83;48.30;94937.19;5070000;28;20206;-72
2023/09/26 09:03:52;;;;;;;0.68;0.68;;;;;;;23.79;47.67;94930.88;5070529;28;20207;-74
2023/09/26 09:06:19;;;;;;;0.47;0.45;;;;;;;23.68;48.28;94930.16;5070613;28;20642;-73
2023/09/26 09:08:47;;;;;;;0.30;0.30;;;;;;;23.20;48.30;94927.22;5070058;28;20679;-75
2023/09/26 09:11:32;;;;;;;1.35;1.25;;;;;;;22.98;49.61;94926.50;5069901;28;20711;-76
2023/09/26 09:13:58;;;;;;;1.80;0.80;;;;;;;22.97;49.16;94930.44;5070411;28;20191;-73
2023/09/26 09:16:25;;;;;;;1.60;0.95;;;;;;;22.61;50.08;94930.50;5069910;28;20613;-72
2023/09/26 09:18:57;;;;;;;1.45;0.88;;;;;;;22.73;49.56;94932.06;5069857;28;20256;-78
2023/09/26 09:21:27;;;;;;;1.77;1.00;;;;;;;23.07;49.36;94928.84;5074024;28;20558;-73
2023/09/26 09:23:57;;;;;;;2.08;1.60;;;;;;;23.08;49.13;94936.75;5074298;28;20529;-72
2023/09/26 09:26:24;;;;;;;1.73;0.90;;;;;;;23.87;48.66;94929.66;5073765;28;20225;-75
2023/09/26 09:28:55;;;;;;;2.72;1.17;;;;;;;23.78;47.77;94923.78;5073776;28;20210;-73
2023/09/26 09:31:22;;;;;;;1.80;1.20;;;;;;;23.70;48.55;94923.03;5074242;28;20209;-75
2023/09/26 09:33:52;;;;;;;0.68;0.68;;;;;;;23.72;48.21;94919.88;5073772;28;20568;-73
2023/09/26 09:36:20;;;;;;;0.98;0.80;;;;;;;24.28;47.60;94923.47;5073890;28;20632;-74
2023/09/26 09:38:47;;;;;;;0.30;0.30;;;;;;;24.42;47.15;94920.56;5073303;28;20222;-75
2023/09/26 09:41:15;;;;;;;0.45;0.45;;;;;;;24.59;45.82;94916.06;5073769;28;20203;-75
2023/09/26 09:43:42;;;;;;;1.52;1.05;;;;;;;24.14;47.44;94918.00;5073699;28;20206;-74
2023/09/26 09:46:10;;;;;;;2.30;0.70;;;;;;;24.14;46.25;94918.78;5074130;28;20556;-73
2023/09/26 09:48:41;;;;;;;5.15;0.77;;;;;;;24.12;47.04;94917.63;5073292;28;20317;-72
2023/09/26 09:51:10;;;;;;;0.40;0.40;;;;;;;24.09;46.82;94911.69;5073268;28;20240;-74
2023/09/26 09:53:38;;;;;;;1.80;1.58;;;;;;;23.69;47.31;94915.16;5073373;28;20290;-73
2023/09/26 09:56:07;;;;;;;3.10;0.93;;;;;;;23.87;47.41;94921.38;5073809;28;20207;-73
2023/09/26 09:58:40;;;;;;;2.70;1.27;;;;;;;24.26;46.69;94909.22;5073604;28;20663;-75
2023/09/26 10:01:08;;;;;;;1.63;1.10;;;;;;;24.36;46.47;94903.59;5073440;28;20318;-72
2023/09/26 10:03:36;;;;;;;1.55;0.90;;;;;;;24.28;46.31;94907.63;5073145;28;20221;-74
2023/09/26 10:06:08;;;;;;;1.35;1.00;;;;;;;24.42;46.99;94896.44;5073196;28;20206;-73
2023/09/26 10:08:36;;;;;;;2.05;1.38;;;;;;;24.53;45.75;94901.88;5072371;28;20675;-73
2023/09/26 10:11:05;;;;;;;1.38;1.00;;;;;;;24.60;46.54;94912.88;5072714;28;20249;-73
2023/09/26 10:13:32;;;;;;;1.70;1.10;;;;;;;23.94;46.89;94912.22;5072622;28;20211;-73
2023/09/26 10:16:15;;;;;;;1.00;0.90;;;;;;;23.74;47.47;94900.91;5072917;28;20214;-74
2023/09/26 10:18:50;;;;;;;1.67;1.20;;;;;;;23.81;47.62;94898.06;5073233;28;20270;-73
2023/09/26 10:21:22;;;;;;;1.17;0.95;;;;;;;22.75;50.47;94929.69;5073103;28;20281;-73
2023/09/26 10:24:22;;;;;;;2.50;1.15;;;;;;;22.65;51.03;94903.69;5073282;28;20304;-74
2023/09/26 10:27:04;;;;;;;1.45;1.23;;;;;;;22.98;51.14;94898.88;5070760;28;20290;-75
2023/09/26 10:29:32;;;;;;;2.45;1.20;;;;;;;23.10;50.35;94894.91;5073110;28;20667;-73
2023/09/26 10:32:06;;;;;;;1.33;0.98;;;;;;;23.22;49.41;94888.91;5071715;28;20207;-73
2023/09/26 10:34:36;;;;;;;1.80;0.45;;;;;;;23.36;49.75;94886.88;5072344;28;20214;-71
2023/09/26 10:37:19;;;;;;;0.38;0.35;;;;;;;22.80;50.29;94887.09;5072941;28;20293;-78
2023/09/26 10:39:46;;;;;;;1.10;1.00;;;;;;;22.82;50.70;94899.34;5072589;28;20248;-78
2023/09/26 10:42:22;;;;;;;2.78;2.13;;;;;;;22.44;51.25;94889.91;5072432;28;20218;-78
2023/09/26 10:44:50;;;;;;;2.85;1.17;;;;;;;22.94;50.75;94881.53;5072268;28;20190;-78
2023/09/26 10:47:19;;;;;;;1.13;1.02;;;;;;;23.24;50.08;94879.00;5072317;28;20334;-79
2023/09/26 10:49:46;;;;;;;1.25;0.98;;;;;;;23.20;50.24;94878.25;5072217;28;20221;-78
2023/09/26 10:52:17;;;;;;;0.55;0.55;;;;;;;23.21;50.16;94874.31;5072823;28;20265;-79
2023/09/26 10:54:44;;;;;;;1.88;0.75;;;;;;;23.42;49.51;94861.53;5072027;28;20207;-78
2023/09/26 10:57:18;;;;;;;0.32;0.28;;;;;;;23.67;49.34;94867.72;5072752;28;20685;-78
2023/09/26 10:59:45;;;;;;;2.10;1.60;;;;;;;23.60;49.03;94856.72;5072456;28;20191;-78
2023/09/26 11:02:12;;;;;;;1.10;1.00;;;;;;;23.69;48.41;94857.03;5072226;28;20207;-78
2023/09/26 11:04:41;;;;;;;0.40;0.40;;;;;;;23.74;48.61;94864.94;5072280;28;20657;-78
2023/09/26 11:07:07;;;;;;;0.30;0.30;;;;;;;24.07;48.09;94857.94;5072257;28;20266;-78
2023/09/26 11:09:40;;;;;;;1.83;1.35;;;;;;;23.97;48.21;94867.91;5072241;28;20664;-76
2023/09/26 11:12:07;;;;;;;1.42;1.10;;;;;;;23.57;49.26;94863.06;5072109;28;20243;-79
2023/09/26 11:14:34;;;;;;;2.30;1.67;;;;;;;23.35;49.81;94857.66;5072174;28;20211;-79
2023/09/26 11:17:04;;;;;;;0.88;0.88;;;;;;;23.47;50.58;94869.44;5071651;28;20207;-79
2023/09/26 11:19:32;;;;;;;0.68;0.50;;;;;;;23.58;49.73;94853.56;5071377;28;20301;-78
2023/09/26 11:22:00;;;;;;;0.20;0.20;;;;;;;23.31;49.75;94873.47;5071635;28;20206;-78
2023/09/26 11:24:30;;;;;;;0.95;0.93;;;;;;;23.16;50.29;94866.41;5071553;28;20218;-77
2023/09/26 11:26:59;;;;;;;0.57;0.50;;;;;;;23.04;50.40;94870.44;5071618;28;20282;-77
2023/09/26 11:29:26;;;;;;;1.42;0.38;;;;;;;23.16;51.27;94869.19;5071418;28;20206;-77
2023/09/26 11:31:55;;;;;;;0.43;0.40;;;;;;;23.22;50.90;94853.78;5067965;28;20199;-77
2023/09/26 11:34:22;;;;;;;3.75;1.00;;;;;;;23.22;50.48;94856.53;5071314;28;20326;-76
2023/09/26 11:36:49;;;;;;;3.25;1.13;;;;;;;23.40;50.57;94859.97;5074001;28;20203;-77